sensor_id;sensor_type;location;lat;lon;timestamp;pressure;altitude;pressure_sealevel;temperature;humidity
5550;BME280;2798;42.716;23.256;2023-07-29T00:00:41;94588.09;;;21.74;54.99
5550;BME280;2798;42.716;23.256;2023-07-29T00:03:07;94591.72;;;21.73;55.06
5550;BME280;2798;42.716;23.256;2023-07-29T00:05:33;94594.53;;;21.71;55.04
5550;BME280;2798;42.716;23.256;2023-07-29T00:07:58;94599.56;;;21.73;55.62
5550;BME280;2798;42.716;23.256;2023-07-29T00:10:24;94595.13;;;21.73;55.38
5550;BME280;2798;42.716;23.256;2023-07-29T00:12:49;94596.97;;;21.73;55.72
5550;BME280;2798;42.716;23.256;2023-07-29T00:15:15;94594.34;;;21.73;55.28
5550;BME280;2798;42.716;23.256;2023-07-29T00:17:40;94592.69;;;21.72;55.22
5550;BME280;2798;42.716;23.256;2023-07-29T00:20:06;94578.00;;;21.71;55.00
5550;BME280;2798;42.716;23.256;2023-07-29T00:22:32;94584.84;;;21.72;55.07
5550;BME280;2798;42.716;23.256;2023-07-29T00:24:57;94584.34;;;21.61;55.92
5550;BME280;2798;42.716;23.256;2023-07-29T00:27:24;94580.53;;;21.49;55.75
5550;BME280;2798;42.716;23.256;2023-07-29T00:29:50;94573.44;;;21.43;55.96
5550;BME280;2798;42.716;23.256;2023-07-29T00:32:15;94580.66;;;21.41;56.06
5550;BME280;2798;42.716;23.256;2023-07-29T00:34:40;94574.53;;;21.33;56.54
5550;BME280;2798;42.716;23.256;2023-07-29T00:37:06;94568.41;;;21.26;56.48
5550;BME280;2798;42.716;23.256;2023-07-29T00:39:32;94570.38;;;21.24;56.12
5550;BME280;2798;42.716;23.256;2023-07-29T00:41:58;94573.38;;;21.21;56.32
5550;BME280;2798;42.716;23.256;2023-07-29T00:44:23;94560.91;;;21.08;56.74
5550;BME280;2798;42.716;23.256;2023-07-29T00:46:50;94575.81;;;21.07;56.89
5550;BME280;2798;42.716;23.256;2023-07-29T00:49:17;94573.72;;;21.03;57.25
5550;BME280;2798;42.716;23.256;2023-07-29T00:51:43;94578.97;;;21.03;56.75
5550;BME280;2798;42.716;23.256;2023-07-29T00:54:08;94562.06;;;20.90;56.98
5550;BME280;2798;42.716;23.256;2023-07-29T00:56:34;94583.59;;;21.01;56.91
5550;BME280;2798;42.716;23.256;2023-07-29T00:59:01;94579.50;;;20.98;56.99
5550;BME280;2798;42.716;23.256;2023-07-29T01:01:31;94576.06;;;20.97;57.23
5550;BME280;2798;42.716;23.256;2023-07-29T01:03:57;94575.28;;;20.97;56.94
5550;BME280;2798;42.716;23.256;2023-07-29T01:09:05;94570.09;;;20.88;57.24
5550;BME280;2798;42.716;23.256;2023-07-29T01:16:52;94563.16;;;20.81;57.58
5550;BME280;2798;42.716;23.256;2023-07-29T01:22:11;94578.47;;;20.84;57.71
5550;BME280;2798;42.716;23.256;2023-07-29T01:27:22;94566.13;;;20.78;57.73
5550;BME280;2798;42.716;23.256;2023-07-29T01:29:47;94568.72;;;20.78;57.74
5550;BME280;2798;42.716;23.256;2023-07-29T01:32:39;94569.63;;;20.70;58.13
5550;BME280;2798;42.716;23.256;2023-07-29T01:35:27;94567.88;;;20.62;58.30
5550;BME280;2798;42.716;23.256;2023-07-29T01:38:24;94573.13;;;20.62;58.84
5550;BME280;2798;42.716;23.256;2023-07-29T01:40:54;94570.84;;;20.59;58.98
5550;BME280;2798;42.716;23.256;2023-07-29T01:43:21;94574.13;;;20.61;58.83
5550;BME280;2798;42.716;23.256;2023-07-29T01:45:49;94580.78;;;20.63;58.79
5550;BME280;2798;42.716;23.256;2023-07-29T01:48:15;94558.97;;;20.56;58.99
5550;BME280;2798;42.716;23.256;2023-07-29T01:50:40;94567.88;;;20.62;58.40
5550;BME280;2798;42.716;23.256;2023-07-29T01:53:06;94562.66;;;20.62;58.49
5550;BME280;2798;42.716;23.256;2023-07-29T01:55:31;94567.34;;;20.52;58.77
5550;BME280;2798;42.716;23.256;2023-07-29T01:57:56;94573.88;;;20.47;59.28
5550;BME280;2798;42.716;23.256;2023-07-29T02:00:23;94569.66;;;20.46;59.19
5550;BME280;2798;42.716;23.256;2023-07-29T02:02:48;94569.66;;;20.46;59.57
5550;BME280;2798;42.716;23.256;2023-07-29T02:05:14;94566.75;;;20.41;59.51
5550;BME280;2798;42.716;23.256;2023-07-29T02:07:39;94575.44;;;20.42;59.54
5550;BME280;2798;42.716;23.256;2023-07-29T02:10:05;94578.03;;;20.42;59.35
5550;BME280;2798;42.716;23.256;2023-07-29T02:12:31;94575.13;;;20.36;59.73
5550;BME280;2798;42.716;23.256;2023-07-29T02:14:56;94573.75;;;20.25;60.10
5550;BME280;2798;42.716;23.256;2023-07-29T02:17:21;94584.75;;;20.21;60.68
5550;BME280;2798;42.716;23.256;2023-07-29T02:19:47;94580.34;;;20.21;60.64
5550;BME280;2798;42.716;23.256;2023-07-29T02:22:16;94584.25;;;20.17;60.62
5550;BME280;2798;42.716;23.256;2023-07-29T02:24:43;94582.66;;;20.16;60.65
5550;BME280;2798;42.716;23.256;2023-07-29T02:27:08;94584.78;;;20.12;60.81
5550;BME280;2798;42.716;23.256;2023-07-29T02:29:34;94579.75;;;20.11;61.13
5550;BME280;2798;42.716;23.256;2023-07-29T02:31:59;94570.28;;;20.10;61.26
5550;BME280;2798;42.716;23.256;2023-07-29T02:34:25;94576.78;;;20.14;61.01
5550;BME280;2798;42.716;23.256;2023-07-29T02:36:50;94581.19;;;20.13;60.75
5550;BME280;2798;42.716;23.256;2023-07-29T02:39:16;94577.13;;;20.11;60.78
5550;BME280;2798;42.716;23.256;2023-07-29T02:41:42;94574.22;;;20.06;60.65
5550;BME280;2798;42.716;23.256;2023-07-29T02:44:07;94577.84;;;20.05;61.02
5550;BME280;2798;42.716;23.256;2023-07-29T02:46:32;94580.44;;;20.05;61.02
5550;BME280;2798;42.716;23.256;2023-07-29T02:48:58;94583.34;;;20.10;60.65
5550;BME280;2798;42.716;23.256;2023-07-29T02:51:24;94588.28;;;20.05;60.47
5550;BME280;2798;42.716;23.256;2023-07-29T02:53:49;94581.94;;;19.99;60.69
5550;BME280;2798;42.716;23.256;2023-07-29T02:56:15;94583.72;;;19.98;61.17
5550;BME280;2798;42.716;23.256;2023-07-29T02:58:40;94588.94;;;19.98;61.16
5550;BME280;2798;42.716;23.256;2023-07-29T03:01:06;94588.47;;;19.95;61.54
5550;BME280;2798;42.716;23.256;2023-07-29T03:03:32;94590.44;;;19.93;61.49
5550;BME280;2798;42.716;23.256;2023-07-29T03:06:10;94597.47;;;19.92;61.58
5550;BME280;2798;42.716;23.256;2023-07-29T03:08:36;94579.59;;;19.81;61.72
5550;BME280;2798;42.716;23.256;2023-07-29T03:11:10;94591.47;;;19.83;61.80
5550;BME280;2798;42.716;23.256;2023-07-29T03:13:36;94598.16;;;19.86;61.41
5550;BME280;2798;42.716;23.256;2023-07-29T03:16:19;94581.72;;;19.77;61.92
5550;BME280;2798;42.716;23.256;2023-07-29T03:18:45;94573.13;;;19.68;61.38
5550;BME280;2798;42.716;23.256;2023-07-29T03:21:11;94593.50;;;19.73;61.94
5550;BME280;2798;42.716;23.256;2023-07-29T03:23:38;94598.38;;;19.76;62.19
5550;BME280;2798;42.716;23.256;2023-07-29T03:26:04;94601.97;;;19.75;62.36
5550;BME280;2798;42.716;23.256;2023-07-29T03:28:36;94600.81;;;19.77;61.92
5550;BME280;2798;42.716;23.256;2023-07-29T03:31:01;94598.72;;;19.73;62.12
5550;BME280;2798;42.716;23.256;2023-07-29T03:33:27;94599.69;;;19.72;61.69
5550;BME280;2798;42.716;23.256;2023-07-29T03:35:53;94601.97;;;19.75;61.82
5550;BME280;2798;42.716;23.256;2023-07-29T03:38:18;94596.75;;;19.75;61.72
5550;BME280;2798;42.716;23.256;2023-07-29T03:40:44;94608.78;;;19.84;61.80
5550;BME280;2798;42.716;23.256;2023-07-29T03:43:10;94567.81;;;19.53;61.20
5550;BME280;2798;42.716;23.256;2023-07-29T03:45:35;94597.69;;;19.82;60.87
5550;BME280;2798;42.716;23.256;2023-07-29T03:48:01;94604.31;;;19.93;61.13
5550;BME280;2798;42.716;23.256;2023-07-29T03:50:28;94598.09;;;19.94;60.29
5550;BME280;2798;42.716;23.256;2023-07-29T03:52:54;94581.19;;;19.82;59.80
5550;BME280;2798;42.716;23.256;2023-07-29T03:55:20;94599.75;;;19.95;60.68
5550;BME280;2798;42.716;23.256;2023-07-29T03:57:46;94592.88;;;19.94;60.72
5550;BME280;2798;42.716;23.256;2023-07-29T04:00:11;94603.97;;;19.96;60.64
5550;BME280;2798;42.716;23.256;2023-07-29T04:02:37;94588.34;;;19.88;60.30
5550;BME280;2798;42.716;23.256;2023-07-29T04:05:05;94605.56;;;20.06;59.41
5550;BME280;2798;42.716;23.256;2023-07-29T04:07:34;94601.84;;;20.00;60.08
5550;BME280;2798;42.716;23.256;2023-07-29T04:09:59;94602.78;;;20.07;59.24
5550;BME280;2798;42.716;23.256;2023-07-29T04:12:26;94591.88;;;20.04;58.87
5550;BME280;2798;42.716;23.256;2023-07-29T04:14:51;94609.88;;;20.22;58.38
5550;BME280;2798;42.716;23.256;2023-07-29T04:17:17;94566.31;;;19.91;59.15
5550;BME280;2798;42.716;23.256;2023-07-29T04:19:42;94605.16;;;20.17;59.42
5550;BME280;2798;42.716;23.256;2023-07-29T04:22:08;94592.75;;;20.19;58.61
5550;BME280;2798;42.716;23.256;2023-07-29T04:24:33;94610.63;;;20.31;58.27
5550;BME280;2798;42.716;23.256;2023-07-29T04:26:58;94580.47;;;19.96;58.99
5550;BME280;2798;42.716;23.256;2023-07-29T04:29:24;94613.59;;;20.28;58.91
5550;BME280;2798;42.716;23.256;2023-07-29T04:31:50;94607.84;;;20.32;58.36
5550;BME280;2798;42.716;23.256;2023-07-29T04:34:19;94611.47;;;20.31;58.37
5550;BME280;2798;42.716;23.256;2023-07-29T04:36:46;94612.13;;;20.25;58.84
5550;BME280;2798;42.716;23.256;2023-07-29T04:39:11;94604.63;;;20.22;59.02
5550;BME280;2798;42.716;23.256;2023-07-29T04:41:37;94615.50;;;20.34;59.31
5550;BME280;2798;42.716;23.256;2023-07-29T04:44:03;94614.16;;;20.38;59.26
5550;BME280;2798;42.716;23.256;2023-07-29T04:46:28;94608.59;;;20.41;59.14
5550;BME280;2798;42.716;23.256;2023-07-29T04:48:54;94615.88;;;20.46;59.23
5550;BME280;2798;42.716;23.256;2023-07-29T04:51:19;94621.88;;;20.55;58.76
5550;BME280;2798;42.716;23.256;2023-07-29T04:53:45;94621.63;;;20.65;58.06
5550;BME280;2798;42.716;23.256;2023-07-29T04:56:10;94632.56;;;20.68;58.17
5550;BME280;2798;42.716;23.256;2023-07-29T04:58:36;94621.00;;;20.62;57.61
5550;BME280;2798;42.716;23.256;2023-07-29T05:01:02;94599.72;;;20.50;57.76
5550;BME280;2798;42.716;23.256;2023-07-29T05:03:28;94641.19;;;20.69;57.85
5550;BME280;2798;42.716;23.256;2023-07-29T05:05:53;94646.25;;;20.70;57.86
5550;BME280;2798;42.716;23.256;2023-07-29T05:08:21;94643.69;;;20.62;58.11
5550;BME280;2798;42.716;23.256;2023-07-29T05:10:50;94647.84;;;20.56;58.36
5550;BME280;2798;42.716;23.256;2023-07-29T05:13:16;94637.31;;;20.65;58.20
5550;BME280;2798;42.716;23.256;2023-07-29T05:15:41;94652.47;;;20.69;58.15
5550;BME280;2798;42.716;23.256;2023-07-29T05:18:06;94639.69;;;20.74;58.34
5550;BME280;2798;42.716;23.256;2023-07-29T05:20:32;94646.44;;;20.69;58.36
5550;BME280;2798;42.716;23.256;2023-07-29T05:22:57;94642.38;;;20.66;58.56
5550;BME280;2798;42.716;23.256;2023-07-29T05:25:23;94647.53;;;20.74;58.84
5550;BME280;2798;42.716;23.256;2023-07-29T05:27:48;94637.25;;;20.73;58.72
5550;BME280;2798;42.716;23.256;2023-07-29T05:30:13;94650.34;;;20.88;58.47
5550;BME280;2798;42.716;23.256;2023-07-29T05:32:39;94647.06;;;20.94;58.08
5550;BME280;2798;42.716;23.256;2023-07-29T05:35:05;94646.63;;;21.06;57.93
5550;BME280;2798;42.716;23.256;2023-07-29T05:37:30;94652.69;;;21.21;57.61
5550;BME280;2798;42.716;23.256;2023-07-29T05:39:55;94650.69;;;21.23;57.52
5550;BME280;2798;42.716;23.256;2023-07-29T05:42:21;94649.53;;;21.26;57.26
5550;BME280;2798;42.716;23.256;2023-07-29T05:44:46;94651.97;;;21.28;57.26
5550;BME280;2798;42.716;23.256;2023-07-29T05:47:12;94641.59;;;21.19;57.76
5550;BME280;2798;42.716;23.256;2023-07-29T05:49:37;94651.91;;;21.36;57.18
5550;BME280;2798;42.716;23.256;2023-07-29T05:52:03;94655.31;;;21.36;57.42
5550;BME280;2798;42.716;23.256;2023-07-29T05:54:28;94654.22;;;21.46;57.46
5550;BME280;2798;42.716;23.256;2023-07-29T05:56:53;94660.19;;;21.55;57.12
5550;BME280;2798;42.716;23.256;2023-07-29T05:59:19;94650.53;;;21.55;56.96
5550;BME280;2798;42.716;23.256;2023-07-29T06:01:44;94655.13;;;21.53;56.80
5550;BME280;2798;42.716;23.256;2023-07-29T06:04:10;94641.94;;;21.46;56.75
5550;BME280;2798;42.716;23.256;2023-07-29T06:06:35;94654.03;;;21.63;56.53
5550;BME280;2798;42.716;23.256;2023-07-29T06:09:00;94646.34;;;21.76;56.73
5550;BME280;2798;42.716;23.256;2023-07-29T06:11:26;94651.31;;;21.86;56.47
5550;BME280;2798;42.716;23.256;2023-07-29T06:13:52;94652.41;;;21.92;56.35
5550;BME280;2798;42.716;23.256;2023-07-29T06:16:18;94646.34;;;21.91;55.70
5550;BME280;2798;42.716;23.256;2023-07-29T06:18:46;94647.66;;;22.02;56.26
5550;BME280;2798;42.716;23.256;2023-07-29T06:21:11;94634.13;;;21.98;55.98
5550;BME280;2798;42.716;23.256;2023-07-29T06:23:42;94626.00;;;21.93;56.26
5550;BME280;2798;42.716;23.256;2023-07-29T06:26:08;94646.75;;;22.10;55.73
5550;BME280;2798;42.716;23.256;2023-07-29T06:28:33;94644.38;;;22.15;55.91
5550;BME280;2798;42.716;23.256;2023-07-29T06:30:59;94640.41;;;22.19;55.63
5550;BME280;2798;42.716;23.256;2023-07-29T06:33:24;94640.75;;;22.38;55.22
5550;BME280;2798;42.716;23.256;2023-07-29T06:35:50;94639.16;;;22.37;55.06
5550;BME280;2798;42.716;23.256;2023-07-29T06:38:15;94638.03;;;22.46;54.81
5550;BME280;2798;42.716;23.256;2023-07-29T06:40:44;94636.81;;;22.49;55.24
5550;BME280;2798;42.716;23.256;2023-07-29T06:43:09;94630.84;;;22.55;55.00
5550;BME280;2798;42.716;23.256;2023-07-29T06:45:35;94628.78;;;22.72;55.01
5550;BME280;2798;42.716;23.256;2023-07-29T06:48:00;94632.59;;;22.70;54.68
5550;BME280;2798;42.716;23.256;2023-07-29T06:50:26;94630.03;;;22.77;54.53
5550;BME280;2798;42.716;23.256;2023-07-29T06:52:51;94632.06;;;22.81;54.65
5550;BME280;2798;42.716;23.256;2023-07-29T06:55:16;94616.13;;;22.76;54.54
5550;BME280;2798;42.716;23.256;2023-07-29T06:57:42;94629.38;;;22.96;54.29
5550;BME280;2798;42.716;23.256;2023-07-29T07:00:08;94635.25;;;23.05;53.83
5550;BME280;2798;42.716;23.256;2023-07-29T07:02:34;94624.81;;;23.12;53.65
5550;BME280;2798;42.716;23.256;2023-07-29T07:05:00;94639.69;;;23.33;54.04
5550;BME280;2798;42.716;23.256;2023-07-29T07:07:25;94639.41;;;23.50;52.46
5550;BME280;2798;42.716;23.256;2023-07-29T07:09:50;94638.63;;;23.56;52.45
5550;BME280;2798;42.716;23.256;2023-07-29T07:12:16;94630.78;;;23.63;51.47
5550;BME280;2798;42.716;23.256;2023-07-29T07:14:41;94627.34;;;23.63;51.37
5550;BME280;2798;42.716;23.256;2023-07-29T07:17:06;94622.47;;;23.60;50.82
5550;BME280;2798;42.716;23.256;2023-07-29T07:19:32;94624.53;;;23.71;51.27
5550;BME280;2798;42.716;23.256;2023-07-29T07:21:57;94625.38;;;23.78;51.02
5550;BME280;2798;42.716;23.256;2023-07-29T07:24:23;94627.81;;;23.87;51.39
5550;BME280;2798;42.716;23.256;2023-07-29T07:26:48;94623.81;;;23.98;50.32
5550;BME280;2798;42.716;23.256;2023-07-29T07:29:14;94625.44;;;24.05;49.80
5550;BME280;2798;42.716;23.256;2023-07-29T07:31:39;94628.50;;;24.09;50.25
5550;BME280;2798;42.716;23.256;2023-07-29T07:34:04;94618.19;;;24.14;49.70
5550;BME280;2798;42.716;23.256;2023-07-29T07:36:30;94624.91;;;24.17;49.27
5550;BME280;2798;42.716;23.256;2023-07-29T07:38:56;94614.19;;;24.25;49.63
5550;BME280;2798;42.716;23.256;2023-07-29T07:41:22;94600.22;;;24.25;49.95
5550;BME280;2798;42.716;23.256;2023-07-29T07:43:47;94601.66;;;24.41;47.94
5550;BME280;2798;42.716;23.256;2023-07-29T07:46:12;94613.44;;;24.52;48.12
5550;BME280;2798;42.716;23.256;2023-07-29T07:48:38;94608.16;;;24.52;47.82
5550;BME280;2798;42.716;23.256;2023-07-29T07:51:13;94603.69;;;24.52;46.92
5550;BME280;2798;42.716;23.256;2023-07-29T07:53:38;94621.13;;;24.74;46.94
5550;BME280;2798;42.716;23.256;2023-07-29T07:56:05;94627.38;;;24.86;46.89
5550;BME280;2798;42.716;23.256;2023-07-29T07:58:31;94623.34;;;24.84;46.54
5550;BME280;2798;42.716;23.256;2023-07-29T08:01:03;94625.56;;;24.87;46.55
5550;BME280;2798;42.716;23.256;2023-07-29T08:03:29;94604.91;;;24.77;46.67
5550;BME280;2798;42.716;23.256;2023-07-29T08:05:55;94619.09;;;25.03;46.40
5550;BME280;2798;42.716;23.256;2023-07-29T08:08:20;94614.44;;;25.05;46.15
5550;BME280;2798;42.716;23.256;2023-07-29T08:10:46;94621.72;;;25.16;45.99
5550;BME280;2798;42.716;23.256;2023-07-29T08:13:11;94622.09;;;25.20;45.63
5550;BME280;2798;42.716;23.256;2023-07-29T08:15:36;94617.44;;;25.29;45.05
5550;BME280;2798;42.716;23.256;2023-07-29T08:18:02;94623.47;;;25.36;45.09
5550;BME280;2798;42.716;23.256;2023-07-29T08:20:27;94621.03;;;25.41;45.23
5550;BME280;2798;42.716;23.256;2023-07-29T08:22:53;94622.63;;;25.49;44.45
5550;BME280;2798;42.716;23.256;2023-07-29T08:25:18;94616.31;;;25.57;43.64
5550;BME280;2798;42.716;23.256;2023-07-29T08:27:44;94617.75;;;25.66;43.58
5550;BME280;2798;42.716;23.256;2023-07-29T08:30:09;94615.69;;;25.75;43.79
5550;BME280;2798;42.716;23.256;2023-07-29T08:32:35;94621.91;;;25.81;43.75
5550;BME280;2798;42.716;23.256;2023-07-29T08:35:01;94622.09;;;25.93;42.84
5550;BME280;2798;42.716;23.256;2023-07-29T08:37:26;94617.63;;;25.94;41.90
5550;BME280;2798;42.716;23.256;2023-07-29T08:39:52;94613.97;;;25.95;41.58
5550;BME280;2798;42.716;23.256;2023-07-29T08:42:19;94607.84;;;26.01;41.00
5550;BME280;2798;42.716;23.256;2023-07-29T08:44:48;94611.41;;;26.13;41.44
5550;BME280;2798;42.716;23.256;2023-07-29T08:47:14;94620.31;;;26.19;41.04
5550;BME280;2798;42.716;23.256;2023-07-29T08:49:40;94601.66;;;26.21;40.78
5550;BME280;2798;42.716;23.256;2023-07-29T08:52:07;94601.00;;;26.25;40.36
5550;BME280;2798;42.716;23.256;2023-07-29T08:54:32;94601.19;;;26.31;40.30
5550;BME280;2798;42.716;23.256;2023-07-29T08:56:59;94602.34;;;26.41;39.82
5550;BME280;2798;42.716;23.256;2023-07-29T08:59:25;94587.47;;;26.47;39.61
5550;BME280;2798;42.716;23.256;2023-07-29T09:01:51;94598.53;;;26.63;39.20
5550;BME280;2798;42.716;23.256;2023-07-29T09:04:20;94600.91;;;26.71;37.92
5550;BME280;2798;42.716;23.256;2023-07-29T09:06:50;94600.84;;;26.78;36.94
5550;BME280;2798;42.716;23.256;2023-07-29T09:09:15;94594.34;;;26.81;36.49
5550;BME280;2798;42.716;23.256;2023-07-29T09:11:41;94583.28;;;26.90;36.32
5550;BME280;2798;42.716;23.256;2023-07-29T09:14:06;94582.94;;;27.06;36.11
5550;BME280;2798;42.716;23.256;2023-07-29T09:16:32;94570.22;;;26.96;35.89
5550;BME280;2798;42.716;23.256;2023-07-29T09:19:01;94589.94;;;27.19;35.64
5550;BME280;2798;42.716;23.256;2023-07-29T09:21:28;94581.13;;;27.25;37.67
5550;BME280;2798;42.716;23.256;2023-07-29T09:23:55;94579.16;;;27.39;37.45
5550;BME280;2798;42.716;23.256;2023-07-29T09:26:28;94583.84;;;27.37;35.30
5550;BME280;2798;42.716;23.256;2023-07-29T09:28:58;94586.69;;;27.54;34.14
5550;BME280;2798;42.716;23.256;2023-07-29T09:31:28;94571.56;;;27.61;34.07
5550;BME280;2798;42.716;23.256;2023-07-29T09:33:57;94575.53;;;27.71;34.36
5550;BME280;2798;42.716;23.256;2023-07-29T09:36:23;94572.47;;;27.74;34.25
5550;BME280;2798;42.716;23.256;2023-07-29T09:38:52;94561.91;;;27.86;34.64
5550;BME280;2798;42.716;23.256;2023-07-29T09:41:18;94562.78;;;27.98;34.50
5550;BME280;2798;42.716;23.256;2023-07-29T09:43:44;94560.28;;;28.16;33.87
5550;BME280;2798;42.716;23.256;2023-07-29T09:46:10;94559.50;;;28.27;33.87
5550;BME280;2798;42.716;23.256;2023-07-29T09:48:37;94557.63;;;28.46;34.24
5550;BME280;2798;42.716;23.256;2023-07-29T09:51:13;94559.81;;;28.61;33.07
5550;BME280;2798;42.716;23.256;2023-07-29T09:53:47;94562.56;;;28.79;32.48
5550;BME280;2798;42.716;23.256;2023-07-29T09:56:13;94561.22;;;28.76;32.11
5550;BME280;2798;42.716;23.256;2023-07-29T09:58:39;94535.28;;;28.78;31.79
5550;BME280;2798;42.716;23.256;2023-07-29T10:01:06;94558.66;;;28.93;31.55
5550;BME280;2798;42.716;23.256;2023-07-29T10:03:32;94563.06;;;28.99;31.90
5550;BME280;2798;42.716;23.256;2023-07-29T10:06:05;94549.34;;;29.15;31.79
5550;BME280;2798;42.716;23.256;2023-07-29T10:08:31;94547.34;;;29.34;30.62
5550;BME280;2798;42.716;23.256;2023-07-29T10:11:01;94543.84;;;29.45;30.20
5550;BME280;2798;42.716;23.256;2023-07-29T10:13:27;94550.53;;;29.48;29.47
5550;BME280;2798;42.716;23.256;2023-07-29T10:15:56;94536.03;;;29.39;29.82
5550;BME280;2798;42.716;23.256;2023-07-29T10:18:22;94539.91;;;29.48;29.48
5550;BME280;2798;42.716;23.256;2023-07-29T10:20:50;94527.78;;;29.52;29.20
5550;BME280;2798;42.716;23.256;2023-07-29T10:23:17;94528.94;;;29.56;29.76
5550;BME280;2798;42.716;23.256;2023-07-29T10:26:19;94529.91;;;29.50;29.78
5550;BME280;2798;42.716;23.256;2023-07-29T10:28:40;94501.53;;;29.51;29.63
5550;BME280;2798;42.716;23.256;2023-07-29T10:31:07;94516.88;;;29.78;29.42
5550;BME280;2798;42.716;23.256;2023-07-29T10:33:33;94503.00;;;29.88;29.43
5550;BME280;2798;42.716;23.256;2023-07-29T10:36:00;94514.75;;;30.09;29.02
5550;BME280;2798;42.716;23.256;2023-07-29T10:38:26;94514.97;;;30.19;28.35
5550;BME280;2798;42.716;23.256;2023-07-29T10:40:54;94509.97;;;30.23;29.06
5550;BME280;2798;42.716;23.256;2023-07-29T10:43:31;94512.72;;;30.28;28.73
5550;BME280;2798;42.716;23.256;2023-07-29T10:45:57;94512.16;;;30.43;27.77
5550;BME280;2798;42.716;23.256;2023-07-29T10:51:26;94504.91;;;30.21;27.78
5550;BME280;2798;42.716;23.256;2023-07-29T10:53:54;94494.78;;;30.35;27.78
5550;BME280;2798;42.716;23.256;2023-07-29T10:56:33;94501.13;;;30.52;27.45
5550;BME280;2798;42.716;23.256;2023-07-29T11:01:38;94493.34;;;30.84;27.17
5550;BME280;2798;42.716;23.256;2023-07-29T11:17:32;94479.28;;;31.79;26.07
5550;BME280;2798;42.716;23.256;2023-07-29T11:20:01;94481.25;;;31.94;25.70
5550;BME280;2798;42.716;23.256;2023-07-29T11:22:28;94481.94;;;32.06;24.78
5550;BME280;2798;42.716;23.256;2023-07-29T11:24:53;94448.31;;;31.95;24.58
5550;BME280;2798;42.716;23.256;2023-07-29T11:27:19;94477.72;;;32.11;24.48
5550;BME280;2798;42.716;23.256;2023-07-29T11:29:44;94478.06;;;32.19;24.26
5550;BME280;2798;42.716;23.256;2023-07-29T11:32:10;94486.41;;;32.34;23.67
5550;BME280;2798;42.716;23.256;2023-07-29T11:34:35;94481.69;;;32.46;24.17
5550;BME280;2798;42.716;23.256;2023-07-29T11:37:01;94468.22;;;32.58;23.66
5550;BME280;2798;42.716;23.256;2023-07-29T11:39:27;94467.47;;;32.73;23.44
5550;BME280;2798;42.716;23.256;2023-07-29T11:41:52;94464.91;;;32.89;23.61
5550;BME280;2798;42.716;23.256;2023-07-29T11:44:18;94471.56;;;32.91;22.89
5550;BME280;2798;42.716;23.256;2023-07-29T11:46:44;94462.03;;;33.01;22.35
5550;BME280;2798;42.716;23.256;2023-07-29T11:49:09;94466.09;;;33.14;23.21
5550;BME280;2798;42.716;23.256;2023-07-29T11:51:36;94466.00;;;32.98;23.46
5550;BME280;2798;42.716;23.256;2023-07-29T11:54:02;94455.34;;;32.98;23.78
5550;BME280;2798;42.716;23.256;2023-07-29T11:56:29;94459.91;;;33.03;23.83
5550;BME280;2798;42.716;23.256;2023-07-29T11:58:55;94455.09;;;33.05;24.11
5550;BME280;2798;42.716;23.256;2023-07-29T12:01:22;94452.50;;;33.15;23.95
5550;BME280;2798;42.716;23.256;2023-07-29T12:03:49;94446.66;;;33.18;23.24
5550;BME280;2798;42.716;23.256;2023-07-29T12:06:15;94449.06;;;33.25;23.71
5550;BME280;2798;42.716;23.256;2023-07-29T12:08:42;94447.75;;;33.33;23.87
5550;BME280;2798;42.716;23.256;2023-07-29T12:11:09;94431.25;;;33.41;23.65
5550;BME280;2798;42.716;23.256;2023-07-29T12:13:36;94444.06;;;33.55;23.33
5550;BME280;2798;42.716;23.256;2023-07-29T12:16:02;94439.84;;;33.64;23.69
5550;BME280;2798;42.716;23.256;2023-07-29T12:18:32;94434.78;;;33.73;22.86
5550;BME280;2798;42.716;23.256;2023-07-29T12:20:58;94430.50;;;33.83;23.34
5550;BME280;2798;42.716;23.256;2023-07-29T12:23:26;94433.19;;;33.93;22.22
5550;BME280;2798;42.716;23.256;2023-07-29T12:26:01;94425.69;;;34.00;22.12
5550;BME280;2798;42.716;23.256;2023-07-29T12:28:26;94434.25;;;34.13;22.32
5550;BME280;2798;42.716;23.256;2023-07-29T12:30:55;94431.03;;;34.06;21.60
5550;BME280;2798;42.716;23.256;2023-07-29T12:33:36;94433.19;;;33.98;22.05
5550;BME280;2798;42.716;23.256;2023-07-29T12:36:07;94435.31;;;34.01;21.51
5550;BME280;2798;42.716;23.256;2023-07-29T12:38:33;94440.66;;;33.96;21.64
5550;BME280;2798;42.716;23.256;2023-07-29T12:40:58;94433.72;;;33.79;21.74
5550;BME280;2798;42.716;23.256;2023-07-29T12:43:25;94427.00;;;33.61;21.08
5550;BME280;2798;42.716;23.256;2023-07-29T12:45:51;94428.28;;;33.33;21.68
5550;BME280;2798;42.716;23.256;2023-07-29T12:48:17;94441.66;;;33.43;22.44
5550;BME280;2798;42.716;23.256;2023-07-29T12:50:43;94429.13;;;33.54;22.20
5550;BME280;2798;42.716;23.256;2023-07-29T12:53:09;94424.34;;;33.66;21.86
5550;BME280;2798;42.716;23.256;2023-07-29T12:55:37;94431.59;;;33.82;21.39
5550;BME280;2798;42.716;23.256;2023-07-29T12:58:03;94431.31;;;33.99;21.31
5550;BME280;2798;42.716;23.256;2023-07-29T13:00:29;94431.03;;;34.11;21.03
5550;BME280;2798;42.716;23.256;2023-07-29T13:02:54;94428.91;;;34.18;21.16
5550;BME280;2798;42.716;23.256;2023-07-29T13:05:20;94422.50;;;34.30;20.88
5550;BME280;2798;42.716;23.256;2023-07-29T13:07:46;94429.97;;;34.43;20.74
5550;BME280;2798;42.716;23.256;2023-07-29T13:10:12;94432.34;;;34.50;20.86
5550;BME280;2798;42.716;23.256;2023-07-29T13:12:38;94423.25;;;34.56;20.64
5550;BME280;2798;42.716;23.256;2023-07-29T13:15:04;94418.44;;;34.53;20.52
5550;BME280;2798;42.716;23.256;2023-07-29T13:17:30;94419.81;;;34.09;20.67
5550;BME280;2798;42.716;23.256;2023-07-29T13:19:56;94411.56;;;33.84;21.14
5550;BME280;2798;42.716;23.256;2023-07-29T13:22:21;94416.34;;;34.08;21.61
5550;BME280;2798;42.716;23.256;2023-07-29T13:24:47;94413.97;;;34.22;21.61
5550;BME280;2798;42.716;23.256;2023-07-29T13:27:12;94404.88;;;34.13;20.93
5550;BME280;2798;42.716;23.256;2023-07-29T13:29:39;94415.28;;;34.35;21.64
5550;BME280;2798;42.716;23.256;2023-07-29T13:32:05;94391.53;;;34.34;21.14
5550;BME280;2798;42.716;23.256;2023-07-29T13:34:31;94417.91;;;34.56;21.09
5550;BME280;2798;42.716;23.256;2023-07-29T13:36:56;94404.00;;;34.59;21.14
5550;BME280;2798;42.716;23.256;2023-07-29T13:39:22;94403.75;;;34.50;20.37